sensor_id;sensor_type;location;lat;lon;timestamp;pressure;altitude;pressure_sealevel;temperature;humidity
10720;BME280;5411;58.386;15.560;2022-10-16T00:01:51;99431.13;;;13.04;100.00
10720;BME280;5411;58.386;15.560;2022-10-16T00:04:19;99441.88;;;13.04;100.00
10720;BME280;5411;58.386;15.560;2022-10-16T00:06:47;99429.75;;;13.02;100.00
10720;BME280;5411;58.386;15.560;2022-10-16T00:09:15;99434.53;;;13.00;100.00
10720;BME280;5411;58.386;15.560;2022-10-16T00:11:44;99422.16;;;12.99;100.00
10720;BME280;5411;58.386;15.560;2022-10-16T00:14:14;99408.97;;;12.97;100.00
10720;BME280;5411;58.386;15.560;2022-10-16T00:16:43;99412.25;;;12.99;100.00
10720;BME280;5411;58.386;15.560;2022-10-16T00:19:12;99426.72;;;12.98;100.00
10720;BME280;5411;58.386;15.560;2022-10-16T00:21:40;99431.84;;;13.00;100.00
10720;BME280;5411;58.386;15.560;2022-10-16T00:24:09;99424.38;;;13.02;100.00
10720;BME280;5411;58.386;15.560;2022-10-16T00:26:38;99418.03;;;13.08;100.00
10720;BME280;5411;58.386;15.560;2022-10-16T00:29:07;99420.22;;;13.11;100.00
10720;BME280;5411;58.386;15.560;2022-10-16T00:31:35;99425.13;;;13.14;100.00
10720;BME280;5411;58.386;15.560;2022-10-16T00:34:05;99417.66;;;13.16;100.00
10720;BME280;5411;58.386;15.560;2022-10-16T00:36:33;99412.06;;;13.17;100.00
10720;BME280;5411;58.386;15.560;2022-10-16T00:39:01;99417.16;;;13.19;100.00
10720;BME280;5411;58.386;15.560;2022-10-16T00:41:29;99410.97;;;13.18;100.00
10720;BME280;5411;58.386;15.560;2022-10-16T00:43:59;99421.72;;;13.18;100.00
10720;BME280;5411;58.386;15.560;2022-10-16T00:46:29;99429.53;;;13.20;100.00
10720;BME280;5411;58.386;15.560;2022-10-16T00:49:05;99427.91;;;13.19;100.00
10720;BME280;5411;58.386;15.560;2022-10-16T00:51:38;99428.47;;;13.21;100.00
10720;BME280;5411;58.386;15.560;2022-10-16T00:54:09;99437.59;;;13.20;100.00
10720;BME280;5411;58.386;15.560;2022-10-16T00:56:39;99450.31;;;13.25;100.00
10720;BME280;5411;58.386;15.560;2022-10-16T00:59:11;99454.63;;;13.26;100.00
10720;BME280;5411;58.386;15.560;2022-10-16T01:01:41;99455.78;;;13.30;100.00
10720;BME280;5411;58.386;15.560;2022-10-16T01:04:11;99475.94;;;13.32;100.00
10720;BME280;5411;58.386;15.560;2022-10-16T01:06:44;99477.59;;;13.33;100.00
10720;BME280;5411;58.386;15.560;2022-10-16T01:09:20;99458.88;;;13.38;100.00
10720;BME280;5411;58.386;15.560;2022-10-16T01:11:57;99440.31;;;13.37;100.00
10720;BME280;5411;58.386;15.560;2022-10-16T01:14:32;99445.69;;;13.37;100.00
10720;BME280;5411;58.386;15.560;2022-10-16T01:17:07;99448.59;;;13.35;100.00
10720;BME280;5411;58.386;15.560;2022-10-16T01:20:02;99445.91;;;13.35;100.00
10720;BME280;5411;58.386;15.560;2022-10-16T01:22:39;99443.72;;;13.32;100.00
10720;BME280;5411;58.386;15.560;2022-10-16T01:25:15;99442.91;;;13.32;100.00
10720;BME280;5411;58.386;15.560;2022-10-16T01:27:46;99443.41;;;13.29;100.00
10720;BME280;5411;58.386;15.560;2022-10-16T01:30:18;99450.88;;;13.27;100.00
10720;BME280;5411;58.386;15.560;2022-10-16T01:32:53;99455.91;;;13.23;100.00
10720;BME280;5411;58.386;15.560;2022-10-16T01:35:27;99452.09;;;13.19;100.00
10720;BME280;5411;58.386;15.560;2022-10-16T01:38:00;99458.03;;;13.21;100.00
10720;BME280;5411;58.386;15.560;2022-10-16T01:40:33;99454.22;;;13.17;100.00
10720;BME280;5411;58.386;15.560;2022-10-16T01:43:06;99458.19;;;13.14;100.00
10720;BME280;5411;58.386;15.560;2022-10-16T01:45:36;99466.03;;;13.16;100.00
10720;BME280;5411;58.386;15.560;2022-10-16T01:48:06;99456.53;;;13.13;100.00
10720;BME280;5411;58.386;15.560;2022-10-16T01:50:39;99438.84;;;13.01;100.00
10720;BME280;5411;58.386;15.560;2022-10-16T01:53:12;99450.66;;;13.00;100.00
10720;BME280;5411;58.386;15.560;2022-10-16T01:55:44;99446.09;;;13.00;100.00
10720;BME280;5411;58.386;15.560;2022-10-16T01:58:16;99438.16;;;12.94;100.00
10720;BME280;5411;58.386;15.560;2022-10-16T02:00:46;99437.13;;;12.95;100.00
10720;BME280;5411;58.386;15.560;2022-10-16T02:03:17;99434.13;;;12.91;100.00
10720;BME280;5411;58.386;15.560;2022-10-16T02:05:50;99432.22;;;12.92;100.00
10720;BME280;5411;58.386;15.560;2022-10-16T02:08:20;99429.53;;;12.92;100.00
10720;BME280;5411;58.386;15.560;2022-10-16T02:10:50;99424.16;;;12.92;100.00
10720;BME280;5411;58.386;15.560;2022-10-16T02:13:25;99433.84;;;12.93;100.00
10720;BME280;5411;58.386;15.560;2022-10-16T02:15:54;99430.63;;;12.91;100.00
10720;BME280;5411;58.386;15.560;2022-10-16T02:18:22;99429.81;;;12.90;100.00
10720;BME280;5411;58.386;15.560;2022-10-16T02:21:02;99431.69;;;12.90;100.00
10720;BME280;5411;58.386;15.560;2022-10-16T02:23:37;99426.06;;;12.91;100.00
10720;BME280;5411;58.386;15.560;2022-10-16T02:26:14;99419.88;;;12.91;100.00
10720;BME280;5411;58.386;15.560;2022-10-16T02:28:47;99421.75;;;12.90;100.00
10720;BME280;5411;58.386;15.560;2022-10-16T02:31:23;99426.31;;;12.90;100.00
10720;BME280;5411;58.386;15.560;2022-10-16T02:33:55;99420.94;;;12.90;100.00
10720;BME280;5411;58.386;15.560;2022-10-16T02:36:25;99417.44;;;12.89;100.00
10720;BME280;5411;58.386;15.560;2022-10-16T02:38:53;99417.44;;;12.89;100.00
10720;BME280;5411;58.386;15.560;2022-10-16T02:41:23;99414.16;;;12.87;100.00
10720;BME280;5411;58.386;15.560;2022-10-16T02:43:52;99411.16;;;12.83;100.00
10720;BME280;5411;58.386;15.560;2022-10-16T02:46:21;99420.59;;;12.86;100.00
10720;BME280;5411;58.386;15.560;2022-10-16T02:48:50;99421.88;;;12.83;100.00
10720;BME280;5411;58.386;15.560;2022-10-16T02:51:18;99421.88;;;12.83;100.00
10720;BME280;5411;58.386;15.560;2022-10-16T02:53:46;99423.19;;;12.81;100.00
10720;BME280;5411;58.386;15.560;2022-10-16T02:56:15;99418.63;;;12.81;100.00
10720;BME280;5411;58.386;15.560;2022-10-16T02:58:45;99420.25;;;12.82;100.00
10720;BME280;5411;58.386;15.560;2022-10-16T03:01:23;99413.25;;;12.81;100.00
10720;BME280;5411;58.386;15.560;2022-10-16T03:03:51;99419.09;;;12.78;100.00
10720;BME280;5411;58.386;15.560;2022-10-16T03:06:19;99416.41;;;12.78;100.00
10720;BME280;5411;58.386;15.560;2022-10-16T03:08:48;99408.63;;;12.77;100.00
10720;BME280;5411;58.386;15.560;2022-10-16T03:11:19;99421.00;;;12.78;100.00
10720;BME280;5411;58.386;15.560;2022-10-16T03:13:48;99418.31;;;12.78;100.00
10720;BME280;5411;58.386;15.560;2022-10-16T03:16:17;99420.19;;;12.77;100.00
10720;BME280;5411;58.386;15.560;2022-10-16T03:18:49;99415.63;;;12.78;100.00
10720;BME280;5411;58.386;15.560;2022-10-16T03:21:17;99427.97;;;12.79;100.00
10720;BME280;5411;58.386;15.560;2022-10-16T03:23:46;99426.09;;;12.79;100.00
10720;BME280;5411;58.386;15.560;2022-10-16T03:26:14;99423.09;;;12.76;100.00
10720;BME280;5411;58.386;15.560;2022-10-16T03:28:42;99424.47;;;12.78;100.00
10720;BME280;5411;58.386;15.560;2022-10-16T03:31:13;99425.56;;;12.77;100.00
10720;BME280;5411;58.386;15.560;2022-10-16T03:33:48;99424.72;;;12.77;100.00
10720;BME280;5411;58.386;15.560;2022-10-16T03:36:17;99427.41;;;12.77;100.00
10720;BME280;5411;58.386;15.560;2022-10-16T03:38:45;99426.03;;;12.74;100.00
10720;BME280;5411;58.386;15.560;2022-10-16T03:41:13;99430.00;;;12.72;100.00
10720;BME280;5411;58.386;15.560;2022-10-16T03:43:42;99431.28;;;12.69;100.00
10720;BME280;5411;58.386;15.560;2022-10-16T03:46:10;99425.56;;;12.66;100.00
10720;BME280;5411;58.386;15.560;2022-10-16T03:48:38;99429.22;;;12.60;100.00
10720;BME280;5411;58.386;15.560;2022-10-16T03:51:08;99433.44;;;12.56;100.00
10720;BME280;5411;58.386;15.560;2022-10-16T03:53:37;99430.66;;;12.51;100.00
10720;BME280;5411;58.386;15.560;2022-10-16T03:56:06;99430.56;;;12.45;100.00
10720;BME280;5411;58.386;15.560;2022-10-16T03:58:35;99435.81;;;12.40;100.00
10720;BME280;5411;58.386;15.560;2022-10-16T04:01:03;99432.81;;;12.37;100.00
10720;BME280;5411;58.386;15.560;2022-10-16T04:03:31;99430.81;;;12.32;100.00
10720;BME280;5411;58.386;15.560;2022-10-16T04:05:59;99438.75;;;12.27;100.00
10720;BME280;5411;58.386;15.560;2022-10-16T04:08:29;99437.38;;;12.25;100.00
10720;BME280;5411;58.386;15.560;2022-10-16T04:10:57;99443.44;;;12.20;100.00
10720;BME280;5411;58.386;15.560;2022-10-16T04:13:25;99431.56;;;12.16;100.00
10720;BME280;5411;58.386;15.560;2022-10-16T04:15:53;99437.97;;;12.15;100.00
10720;BME280;5411;58.386;15.560;2022-10-16T04:18:22;99439.81;;;12.14;100.00
10720;BME280;5411;58.386;15.560;2022-10-16T04:20:50;99436.56;;;12.12;100.00
10720;BME280;5411;58.386;15.560;2022-10-16T04:23:18;99445.41;;;12.13;100.00
10720;BME280;5411;58.386;15.560;2022-10-16T04:25:47;99443.56;;;12.13;100.00
10720;BME280;5411;58.386;15.560;2022-10-16T04:28:15;99449.97;;;12.12;100.00
10720;BME280;5411;58.386;15.560;2022-10-16T04:30:44;99444.28;;;12.09;100.00
10720;BME280;5411;58.386;15.560;2022-10-16T04:33:12;99448.38;;;12.11;100.00
10720;BME280;5411;58.386;15.560;2022-10-16T04:35:41;99448.59;;;12.10;100.00
10720;BME280;5411;58.386;15.560;2022-10-16T04:38:09;99448.81;;;12.08;100.00
10720;BME280;5411;58.386;15.560;2022-10-16T04:40:37;99450.34;;;12.04;100.00
10720;BME280;5411;58.386;15.560;2022-10-16T04:43:08;99459.06;;;12.00;100.00
10720;BME280;5411;58.386;15.560;2022-10-16T04:45:37;99454.91;;;11.92;100.00
10720;BME280;5411;58.386;15.560;2022-10-16T04:48:05;99463.97;;;11.91;100.00
10720;BME280;5411;58.386;15.560;2022-10-16T04:50:33;99465.50;;;11.87;100.00
10720;BME280;5411;58.386;15.560;2022-10-16T04:53:01;99464.56;;;11.82;100.00
10720;BME280;5411;58.386;15.560;2022-10-16T04:55:29;99463.16;;;11.79;100.00
10720;BME280;5411;58.386;15.560;2022-10-16T04:57:58;99464.66;;;11.75;100.00
10720;BME280;5411;58.386;15.560;2022-10-16T05:00:27;99462.41;;;11.72;100.00
10720;BME280;5411;58.386;15.560;2022-10-16T05:02:59;99461.28;;;11.68;100.00
10720;BME280;5411;58.386;15.560;2022-10-16T05:05:34;99469.78;;;11.65;100.00
10720;BME280;5411;58.386;15.560;2022-10-16T05:08:03;99468.38;;;11.62;100.00
10720;BME280;5411;58.386;15.560;2022-10-16T05:10:31;99468.81;;;11.59;100.00
10720;BME280;5411;58.386;15.560;2022-10-16T05:12:59;99468.50;;;11.56;100.00
10720;BME280;5411;58.386;15.560;2022-10-16T05:15:29;99465.81;;;11.56;100.00
10720;BME280;5411;58.386;15.560;2022-10-16T05:17:57;99467.31;;;11.52;100.00
10720;BME280;5411;58.386;15.560;2022-10-16T05:20:28;99472.66;;;11.52;100.00
10720;BME280;5411;58.386;15.560;2022-10-16T05:22:56;99471.97;;;11.45;100.00
10720;BME280;5411;58.386;15.560;2022-10-16T05:25:25;99474.97;;;11.48;100.00
10720;BME280;5411;58.386;15.560;2022-10-16T05:27:53;99487.56;;;11.48;100.00
10720;BME280;5411;58.386;15.560;2022-10-16T05:30:21;99488.59;;;11.47;100.00
10720;BME280;5411;58.386;15.560;2022-10-16T05:32:51;99479.41;;;11.42;100.00
10720;BME280;5411;58.386;15.560;2022-10-16T05:35:20;99480.47;;;11.41;100.00
10720;BME280;5411;58.386;15.560;2022-10-16T05:37:49;99488.50;;;11.41;100.00
10720;BME280;5411;58.386;15.560;2022-10-16T05:40:17;99493.25;;;11.39;100.00
10720;BME280;5411;58.386;15.560;2022-10-16T05:42:45;99492.44;;;11.39;100.00
10720;BME280;5411;58.386;15.560;2022-10-16T05:45:13;99497.81;;;11.39;100.00
10720;BME280;5411;58.386;15.560;2022-10-16T05:47:41;99499.66;;;11.38;100.00
10720;BME280;5411;58.386;15.560;2022-10-16T05:50:11;99493.34;;;11.33;100.00
10720;BME280;5411;58.386;15.560;2022-10-16T05:52:39;99500.56;;;11.32;100.00
10720;BME280;5411;58.386;15.560;2022-10-16T05:55:08;99508.28;;;11.40;100.00
10720;BME280;5411;58.386;15.560;2022-10-16T05:57:36;99507.84;;;11.43;100.00
10720;BME280;5411;58.386;15.560;2022-10-16T06:00:06;99498.50;;;11.46;100.00
10720;BME280;5411;58.386;15.560;2022-10-16T06:02:34;99501.78;;;11.48;100.00
10720;BME280;5411;58.386;15.560;2022-10-16T06:05:03;99513.22;;;11.55;100.00
10720;BME280;5411;58.386;15.560;2022-10-16T06:07:35;99509.25;;;11.58;100.00
10720;BME280;5411;58.386;15.560;2022-10-16T06:10:05;99515.53;;;11.63;100.00
10720;BME280;5411;58.386;15.560;2022-10-16T06:12:34;99499.69;;;11.62;100.00
10720;BME280;5411;58.386;15.560;2022-10-16T06:15:04;99514.97;;;11.73;100.00
10720;BME280;5411;58.386;15.560;2022-10-16T06:17:33;99519.91;;;11.76;100.00
10720;BME280;5411;58.386;15.560;2022-10-16T06:20:01;99517.00;;;11.77;100.00
10720;BME280;5411;58.386;15.560;2022-10-16T06:22:29;99521.09;;;11.80;100.00
10720;BME280;5411;58.386;15.560;2022-10-16T06:24:59;99520.28;;;11.80;100.00
10720;BME280;5411;58.386;15.560;2022-10-16T06:27:27;99528.44;;;11.85;100.00
10720;BME280;5411;58.386;15.560;2022-10-16T06:29:55;99536.81;;;11.88;100.00
10720;BME280;5411;58.386;15.560;2022-10-16T06:32:24;99532.88;;;11.91;100.00
10720;BME280;5411;58.386;15.560;2022-10-16T06:34:53;99526.81;;;11.95;100.00
10720;BME280;5411;58.386;15.560;2022-10-16T06:37:21;99539.41;;;11.95;100.00
10720;BME280;5411;58.386;15.560;2022-10-16T06:39:50;99541.84;;;11.96;100.00
10720;BME280;5411;58.386;15.560;2022-10-16T06:42:21;99542.19;;;12.00;100.00
10720;BME280;5411;58.386;15.560;2022-10-16T06:44:49;99545.44;;;12.02;100.00
10720;BME280;5411;58.386;15.560;2022-10-16T06:47:18;99544.19;;;12.04;100.00
10720;BME280;5411;58.386;15.560;2022-10-16T06:49:46;99553.84;;;12.05;100.00
10720;BME280;5411;58.386;15.560;2022-10-16T06:52:19;99556.66;;;12.10;100.00
10720;BME280;5411;58.386;15.560;2022-10-16T06:54:48;99558.03;;;12.13;100.00
10720;BME280;5411;58.386;15.560;2022-10-16T06:57:17;99569.13;;;12.17;100.00
10720;BME280;5411;58.386;15.560;2022-10-16T06:59:46;99569.50;;;12.20;100.00
10720;BME280;5411;58.386;15.560;2022-10-16T07:02:20;99571.94;;;12.22;100.00
10720;BME280;5411;58.386;15.560;2022-10-16T07:04:49;99573.34;;;12.24;100.00
10720;BME280;5411;58.386;15.560;2022-10-16T07:07:17;99571.81;;;12.28;100.00
10720;BME280;5411;58.386;15.560;2022-10-16T07:09:45;99576.72;;;12.31;100.00
10720;BME280;5411;58.386;15.560;2022-10-16T07:12:14;99588.84;;;12.34;100.00
10720;BME280;5411;58.386;15.560;2022-10-16T07:14:42;99577.66;;;12.37;100.00
10720;BME280;5411;58.386;15.560;2022-10-16T07:17:11;99569.72;;;12.42;100.00
10720;BME280;5411;58.386;15.560;2022-10-16T07:19:39;99572.06;;;12.50;100.00
10720;BME280;5411;58.386;15.560;2022-10-16T07:22:07;99581.59;;;12.58;100.00
10720;BME280;5411;58.386;15.560;2022-10-16T07:24:36;99585.00;;;12.65;100.00
10720;BME280;5411;58.386;15.560;2022-10-16T07:27:04;99601.78;;;12.72;100.00
10720;BME280;5411;58.386;15.560;2022-10-16T07:29:32;99598.41;;;12.76;100.00
10720;BME280;5411;58.386;15.560;2022-10-16T07:32:01;99593.94;;;12.82;100.00
10720;BME280;5411;58.386;15.560;2022-10-16T07:34:31;99598.38;;;12.88;100.00
10720;BME280;5411;58.386;15.560;2022-10-16T07:36:59;99603.59;;;12.95;100.00
10720;BME280;5411;58.386;15.560;2022-10-16T07:39:28;99606.97;;;13.02;100.00
10720;BME280;5411;58.386;15.560;2022-10-16T07:41:56;99601.22;;;13.10;100.00
10720;BME280;5411;58.386;15.560;2022-10-16T07:44:25;99589.44;;;13.11;100.00
10720;BME280;5411;58.386;15.560;2022-10-16T07:46:53;99598.88;;;13.25;100.00
10720;BME280;5411;58.386;15.560;2022-10-16T07:49:21;99588.78;;;13.32;100.00
10720;BME280;5411;58.386;15.560;2022-10-16T07:51:51;99595.56;;;13.35;100.00
10720;BME280;5411;58.386;15.560;2022-10-16T07:54:19;99596.00;;;13.43;100.00
10720;BME280;5411;58.386;15.560;2022-10-16T07:56:47;99585.69;;;13.52;100.00
10720;BME280;5411;58.386;15.560;2022-10-16T07:59:15;99585.88;;;13.62;100.00
10720;BME280;5411;58.386;15.560;2022-10-16T08:01:44;99597.59;;;13.73;100.00
10720;BME280;5411;58.386;15.560;2022-10-16T08:04:12;99604.72;;;13.79;100.00
10720;BME280;5411;58.386;15.560;2022-10-16T08:06:41;99604.25;;;13.82;100.00
10720;BME280;5411;58.386;15.560;2022-10-16T08:09:11;99606.03;;;13.93;100.00
10720;BME280;5411;58.386;15.560;2022-10-16T08:11:41;99605.38;;;14.03;100.00
10720;BME280;5411;58.386;15.560;2022-10-16T08:14:09;99588.75;;;14.06;100.00
10720;BME280;5411;58.386;15.560;2022-10-16T08:16:38;99588.84;;;14.11;100.00
10720;BME280;5411;58.386;15.560;2022-10-16T08:19:06;99590.78;;;14.15;100.00
10720;BME280;5411;58.386;15.560;2022-10-16T08:21:35;99576.03;;;14.18;100.00
10720;BME280;5411;58.386;15.560;2022-10-16T08:24:03;99573.94;;;14.20;100.00
10720;BME280;5411;58.386;15.560;2022-10-16T08:26:33;99580.75;;;14.27;100.00
10720;BME280;5411;58.386;15.560;2022-10-16T08:29:01;99595.34;;;14.32;100.00
10720;BME280;5411;58.386;15.560;2022-10-16T08:31:29;99598.06;;;14.32;100.00
10720;BME280;5411;58.386;15.560;2022-10-16T08:33:58;99604.56;;;14.36;100.00
10720;BME280;5411;58.386;15.560;2022-10-16T08:36:26;99601.06;;;14.35;100.00
10720;BME280;5411;58.386;15.560;2022-10-16T08:38:55;99595.44;;;14.37;100.00
10720;BME280;5411;58.386;15.560;2022-10-16T08:44:29;99603.53;;;14.37;100.00
10720;BME280;5411;58.386;15.560;2022-10-16T08:47:04;99602.69;;;14.36;100.00
10720;BME280;5411;58.386;15.560;2022-10-16T08:49:41;99600.75;;;14.32;100.00
10720;BME280;5411;58.386;15.560;2022-10-16T08:52:12;99605.53;;;14.30;100.00
10720;BME280;5411;58.386;15.560;2022-10-16T08:54:44;99593.47;;;14.32;100.00
10720;BME280;5411;58.386;15.560;2022-10-16T08:57:18;99594.63;;;14.36;100.00
10720;BME280;5411;58.386;15.560;2022-10-16T08:59:51;99597.25;;;14.48;100.00
10720;BME280;5411;58.386;15.560;2022-10-16T09:02:28;99605.13;;;14.54;100.00
10720;BME280;5411;58.386;15.560;2022-10-16T09:05:23;99595.88;;;14.67;100.00
10720;BME280;5411;58.386;15.560;2022-10-16T09:08:01;99591.53;;;14.83;100.00
10720;BME280;5411;58.386;15.560;2022-10-16T09:10:45;99576.56;;;14.92;100.00
10720;BME280;5411;58.386;15.560;2022-10-16T09:13:21;99580.25;;;15.08;100.00
10720;BME280;5411;58.386;15.560;2022-10-16T09:15:59;99570.78;;;15.05;100.00
10720;BME280;5411;58.386;15.560;2022-10-16T09:18:34;99560.41;;;15.14;100.00
10720;BME280;5411;58.386;15.560;2022-10-16T09:21:14;99551.34;;;15.25;100.00
10720;BME280;5411;58.386;15.560;2022-10-16T09:23:43;99547.03;;;15.24;100.00
10720;BME280;5411;58.386;15.560;2022-10-16T09:26:13;99560.16;;;15.42;100.00
10720;BME280;5411;58.386;15.560;2022-10-16T09:28:42;99555.38;;;15.49;100.00
10720;BME280;5411;58.386;15.560;2022-10-16T09:31:19;99553.63;;;15.60;100.00
10720;BME280;5411;58.386;15.560;2022-10-16T09:33:51;99561.78;;;15.65;100.00
10720;BME280;5411;58.386;15.560;2022-10-16T09:36:23;99559.06;;;15.65;100.00
10720;BME280;5411;58.386;15.560;2022-10-16T09:39:03;99550.00;;;15.76;100.00
10720;BME280;5411;58.386;15.560;2022-10-16T09:41:34;99550.25;;;15.75;100.00
10720;BME280;5411;58.386;15.560;2022-10-16T09:44:06;99543.53;;;15.77;100.00
10720;BME280;5411;58.386;15.560;2022-10-16T09:46:45;99538.66;;;15.74;100.00
10720;BME280;5411;58.386;15.560;2022-10-16T09:49:22;99534.88;;;15.75;100.00
10720;BME280;5411;58.386;15.560;2022-10-16T09:52:02;99532.19;;;15.75;100.00
10720;BME280;5411;58.386;15.560;2022-10-16T09:54:30;99540.03;;;15.77;100.00
10720;BME280;5411;58.386;15.560;2022-10-16T09:57:06;99540.28;;;15.75;100.00
10720;BME280;5411;58.386;15.560;2022-10-16T09:59:45;99536.75;;;15.75;100.00
10720;BME280;5411;58.386;15.560;2022-10-16T10:02:17;99538.06;;;15.67;100.00
10720;BME280;5411;58.386;15.560;2022-10-16T10:04:50;99541.25;;;15.64;100.00
10720;BME280;5411;58.386;15.560;2022-10-16T10:07:24;99543.38;;;15.57;100.00
10720;BME280;5411;58.386;15.560;2022-10-16T10:09:55;99537.63;;;15.53;100.00
10720;BME280;5411;58.386;15.560;2022-10-16T10:12:25;99535.00;;;15.58;100.00
10720;BME280;5411;58.386;15.560;2022-10-16T10:14:58;99531.53;;;15.63;100.00
10720;BME280;5411;58.386;15.560;2022-10-16T10:17:28;99535.06;;;15.63;100.00
10720;BME280;5411;58.386;15.560;2022-10-16T10:19:58;99537.69;;;15.58;100.00
10720;BME280;5411;58.386;15.560;2022-10-16T10:22:30;99532.69;;;15.45;100.00
10720;BME280;5411;58.386;15.560;2022-10-16T10:25:23;99526.84;;;15.53;100.00
10720;BME280;5411;58.386;15.560;2022-10-16T10:30:52;99523.31;;;15.80;100.00
10720;BME280;5411;58.386;15.560;2022-10-16T10:33:34;99527.66;;;15.81;100.00
10720;BME280;5411;58.386;15.560;2022-10-16T10:36:14;99534.13;;;15.85;100.00
10720;BME280;5411;58.386;15.560;2022-10-16T10:38:49;99516.94;;;15.91;100.00
10720;BME280;5411;58.386;15.560;2022-10-16T10:41:56;99520.81;;;16.05;100.00
10720;BME280;5411;58.386;15.560;2022-10-16T10:47:26;99523.88;;;16.19;100.00
10720;BME280;5411;58.386;15.560;2022-10-16T10:50:07;99512.88;;;16.30;100.00
10720;BME280;5411;58.386;15.560;2022-10-16T10:52:53;99515.06;;;16.33;100.00
10720;BME280;5411;58.386;15.560;2022-10-16T10:55:33;99515.38;;;16.37;100.00
10720;BME280;5411;58.386;15.560;2022-10-16T11:01:09;99509.06;;;16.26;100.00
10720;BME280;5411;58.386;15.560;2022-10-16T11:04:03;99515.59;;;16.30;100.00
10720;BME280;5411;58.386;15.560;2022-10-16T11:06:40;99512.72;;;16.47;100.00
10720;BME280;5411;58.386;15.560;2022-10-16T11:09:15;99522.75;;;16.57;100.00
10720;BME280;5411;58.386;15.560;2022-10-16T11:11:48;99501.75;;;16.64;100.00
10720;BME280;5411;58.386;15.560;2022-10-16T11:14:20;99516.34;;;16.63;100.00
10720;BME280;5411;58.386;15.560;2022-10-16T11:16:54;99503.28;;;16.50;100.00
10720;BME280;5411;58.386;15.560;2022-10-16T11:19:33;99513.47;;;16.37;100.00
10720;BME280;5411;58.386;15.560;2022-10-16T11:22:09;99505.09;;;16.39;100.00
10720;BME280;5411;58.386;15.560;2022-10-16T11:24:45;99494.25;;;16.29;100.00
10720;BME280;5411;58.386;15.560;2022-10-16T11:27:18;99499.28;;;16.15;100.00
10720;BME280;5411;58.386;15.560;2022-10-16T11:29:52;99495.41;;;16.01;100.00
10720;BME280;5411;58.386;15.560;2022-10-16T11:32:27;99497.03;;;15.97;100.00
10720;BME280;5411;58.386;15.560;2022-10-16T11:35:01;99499.16;;;15.95;100.00
10720;BME280;5411;58.386;15.560;2022-10-16T11:37:37;99500.25;;;15.94;100.00
10720;BME280;5411;58.386;15.560;2022-10-16T11:40:19;99491.03;;;15.90;100.00
10720;BME280;5411;58.386;15.560;2022-10-16T11:42:51;99481.81;;;15.86;100.00
10720;BME280;5411;58.386;15.560;2022-10-16T11:45:27;99472.66;;;15.87;100.00
10720;BME280;5411;58.386;15.560;2022-10-16T11:48:08;99474.25;;;15.83;100.00
10720;BME280;5411;58.386;15.560;2022-10-16T11:50:53;99480.84;;;15.97;100.00
10720;BME280;5411;58.386;15.560;2022-10-16T11:53:39;99465.00;;;16.11;100.00
10720;BME280;5411;58.386;15.560;2022-10-16T11:56:12;99463.13;;;16.16;100.00
10720;BME280;5411;58.386;15.560;2022-10-16T11:58:51;99466.94;;;16.20;100.00
10720;BME280;5411;58.386;15.560;2022-10-16T12:01:27;99469.94;;;16.29;100.00
10720;BME280;5411;58.386;15.560;2022-10-16T12:04:11;99451.38;;;16.37;100.00
10720;BME280;5411;58.386;15.560;2022-10-16T12:06:49;99461.69;;;16.51;100.00
10720;BME280;5411;58.386;15.560;2022-10-16T12:09:24;99461.69;;;16.56;100.00
10720;BME280;5411;58.386;15.560;2022-10-16T12:11:53;99452.31;;;16.63;100.00
10720;BME280;5411;58.386;15.560;2022-10-16T12:14:36;99446.84;;;16.58;100.00
10720;BME280;5411;58.386;15.560;2022-10-16T12:17:26;99440.88;;;16.51;100.00
10720;BME280;5411;58.386;15.560;2022-10-16T12:20:19;99452.97;;;16.38;100.00
10720;BME280;5411;58.386;15.560;2022-10-16T12:22:50;99455.13;;;16.31;100.00
10720;BME280;5411;58.386;15.560;2022-10-16T12:25:25;99447.34;;;16.45;100.00
10720;BME280;5411;58.386;15.560;2022-10-16T12:27:59;99447.94;;;16.57;100.00
10720;BME280;5411;58.386;15.560;2022-10-16T12:30:31;99447.72;;;16.64;100.00
10720;BME280;5411;58.386;15.560;2022-10-16T12:33:03;99442.81;;;16.61;100.00
10720;BME280;5411;58.386;15.560;2022-10-16T12:35:34;99436.31;;;16.57;100.00
10720;BME280;5411;58.386;15.560;2022-10-16T12:38:16;99441.69;;;16.47;99.35
10720;BME280;5411;58.386;15.560;2022-10-16T12:40:55;99435.69;;;16.39;100.00
10720;BME280;5411;58.386;15.560;2022-10-16T12:43:36;99434.56;;;16.25;100.00
10720;BME280;5411;58.386;15.560;2022-10-16T12:46:23;99435.41;;;16.31;100.00
10720;BME280;5411;58.386;15.560;2022-10-16T12:49:04;99425.97;;;16.33;100.00
10720;BME280;5411;58.386;15.560;2022-10-16T12:51:36;99430.03;;;16.36;100.00
10720;BME280;5411;58.386;15.560;2022-10-16T12:54:12;99427.09;;;16.37;100.00
10720;BME280;5411;58.386;15.560;2022-10-16T12:56:50;99423.31;;;16.44;99.31
10720;BME280;5411;58.386;15.560;2022-10-16T12:59:29;99412.75;;;16.37;98.80
10720;BME280;5411;58.386;15.560;2022-10-16T13:02:22;99423.53;;;16.32;99.15
10720;BME280;5411;58.386;15.560;2022-10-16T13:05:11;99427.56;;;16.24;99.70
10720;BME280;5411;58.386;15.560;2022-10-16T13:07:55;99412.63;;;16.12;100.00
10720;BME280;5411;58.386;15.560;2022-10-16T13:10:33;99415.78;;;15.98;99.76
10720;BME280;5411;58.386;15.560;2022-10-16T13:13:20;99418.44;;;15.88;100.00
10720;BME280;5411;58.386;15.560;2022-10-16T13:16:01;99412.69;;;15.75;100.00
10720;BME280;5411;58.386;15.560;2022-10-16T13:18:39;99419.66;;;15.65;100.00
10720;BME280;5411;58.386;15.560;2022-10-16T13:21:29;99407.97;;;15.55;100.00
10720;BME280;5411;58.386;15.560;2022-10-16T13:24:06;99408.16;;;15.48;100.00
10720;BME280;5411;58.386;15.560;2022-10-16T13:26:43;99426.97;;;15.38;100.00
10720;BME280;5411;58.386;15.560;2022-10-16T13:29:15;99463.56;;;15.02;100.00